sensor_id;sensor_type;location;lat;lon;timestamp;pressure;altitude;pressure_sealevel;temperature;humidity
7668;BME280;3876;42.204;24.686;2023-04-06T00:00:01;99173.72;;;3.39;91.09
7668;BME280;3876;42.204;24.686;2023-04-06T00:02:30;99209.91;;;3.56;91.42
7668;BME280;3876;42.204;24.686;2023-04-06T00:04:57;99208.25;;;3.55;92.05
7668;BME280;3876;42.204;24.686;2023-04-06T00:07:24;99200.66;;;3.46;92.26
7668;BME280;3876;42.204;24.686;2023-04-06T00:09:51;99199.84;;;3.44;92.38
7668;BME280;3876;42.204;24.686;2023-04-06T00:12:18;99188.13;;;3.29;92.36
7668;BME280;3876;42.204;24.686;2023-04-06T00:14:44;99192.31;;;3.32;92.54
7668;BME280;3876;42.204;24.686;2023-04-06T00:17:11;99192.31;;;3.29;92.44
7668;BME280;3876;42.204;24.686;2023-04-06T00:19:39;99192.31;;;3.27;92.66
7668;BME280;3876;42.204;24.686;2023-04-06T00:22:06;99190.66;;;3.25;93.13
7668;BME280;3876;42.204;24.686;2023-04-06T00:24:33;99185.56;;;3.28;93.22
7668;BME280;3876;42.204;24.686;2023-04-06T00:27:00;99181.34;;;3.27;92.81
7668;BME280;3876;42.204;24.686;2023-04-06T00:29:27;99183.06;;;3.22;92.81
7668;BME280;3876;42.204;24.686;2023-04-06T00:31:54;99184.75;;;3.23;92.74
7668;BME280;3876;42.204;24.686;2023-04-06T00:34:21;99170.41;;;3.22;92.29
7668;BME280;3876;42.204;24.686;2023-04-06T00:36:49;99172.94;;;3.22;92.34
7668;BME280;3876;42.204;24.686;2023-04-06T00:39:16;99169.56;;;3.23;92.35
7668;BME280;3876;42.204;24.686;2023-04-06T00:41:46;99156.09;;;3.16;91.76
7668;BME280;3876;42.204;24.686;2023-04-06T00:44:15;99167.03;;;3.23;91.45
7668;BME280;3876;42.204;24.686;2023-04-06T00:46:42;99159.44;;;3.21;91.87
7668;BME280;3876;42.204;24.686;2023-04-06T00:49:09;99162.81;;;3.23;91.34
7668;BME280;3876;42.204;24.686;2023-04-06T00:51:36;99167.88;;;3.23;91.94
7668;BME280;3876;42.204;24.686;2023-04-06T00:54:04;99159.44;;;3.21;92.07
7668;BME280;3876;42.204;24.686;2023-04-06T00:56:31;99167.00;;;3.26;91.91
7668;BME280;3876;42.204;24.686;2023-04-06T00:58:58;99150.16;;;3.18;92.40
7668;BME280;3876;42.204;24.686;2023-04-06T01:01:25;99161.13;;;3.17;92.73
7668;BME280;3876;42.204;24.686;2023-04-06T01:03:53;99155.25;;;3.12;93.36
7668;BME280;3876;42.204;24.686;2023-04-06T01:06:20;99155.28;;;3.06;93.84
7668;BME280;3876;42.204;24.686;2023-04-06T01:08:47;99151.88;;;3.07;93.60
7668;BME280;3876;42.204;24.686;2023-04-06T01:11:15;99155.28;;;3.06;94.19
7668;BME280;3876;42.204;24.686;2023-04-06T01:13:43;99156.97;;;3.03;94.00
7668;BME280;3876;42.204;24.686;2023-04-06T01:16:10;99154.44;;;3.01;94.08
7668;BME280;3876;42.204;24.686;2023-04-06T01:18:37;99148.53;;;3.02;94.23
7668;BME280;3876;42.204;24.686;2023-04-06T01:21:04;99140.97;;;2.96;94.49
7668;BME280;3876;42.204;24.686;2023-04-06T01:23:35;99144.34;;;2.97;94.49
7668;BME280;3876;42.204;24.686;2023-04-06T01:26:02;99138.44;;;2.96;94.83
7668;BME280;3876;42.204;24.686;2023-04-06T01:28:28;99132.53;;;2.96;94.00
7668;BME280;3876;42.204;24.686;2023-04-06T01:30:55;99137.59;;;2.91;93.98
7668;BME280;3876;42.204;24.686;2023-04-06T01:33:22;99130.84;;;2.92;94.50
7668;BME280;3876;42.204;24.686;2023-04-06T01:35:49;99130.88;;;2.89;94.50
7668;BME280;3876;42.204;24.686;2023-04-06T01:38:16;99127.53;;;2.84;95.06
7668;BME280;3876;42.204;24.686;2023-04-06T01:40:44;99125.84;;;2.83;95.46
7668;BME280;3876;42.204;24.686;2023-04-06T01:43:11;99125.88;;;2.74;95.57
7668;BME280;3876;42.204;24.686;2023-04-06T01:45:37;99118.28;;;2.66;95.94
7668;BME280;3876;42.204;24.686;2023-04-06T01:48:05;99125.03;;;2.73;95.67
7668;BME280;3876;42.204;24.686;2023-04-06T01:50:32;99108.13;;;2.75;95.30
7668;BME280;3876;42.204;24.686;2023-04-06T01:52:58;99107.28;;;2.76;94.99
7668;BME280;3876;42.204;24.686;2023-04-06T01:55:25;99103.09;;;2.74;95.06
7668;BME280;3876;42.204;24.686;2023-04-06T01:57:53;99110.69;;;2.71;95.15
7668;BME280;3876;42.204;24.686;2023-04-06T02:00:20;99098.03;;;2.66;95.13
7668;BME280;3876;42.204;24.686;2023-04-06T02:02:47;99104.81;;;2.67;95.50
7668;BME280;3876;42.204;24.686;2023-04-06T02:05:14;99110.72;;;2.61;95.33
7668;BME280;3876;42.204;24.686;2023-04-06T02:07:41;99109.88;;;2.64;95.13
7668;BME280;3876;42.204;24.686;2023-04-06T02:10:11;99109.00;;;2.65;95.23
7668;BME280;3876;42.204;24.686;2023-04-06T02:12:38;99099.72;;;2.65;95.15
7668;BME280;3876;42.204;24.686;2023-04-06T02:15:07;99101.41;;;2.71;95.26
7668;BME280;3876;42.204;24.686;2023-04-06T02:17:34;99107.34;;;2.64;95.38
7668;BME280;3876;42.204;24.686;2023-04-06T02:20:01;99105.66;;;2.60;95.95
7668;BME280;3876;42.204;24.686;2023-04-06T02:22:28;99105.66;;;2.55;95.68
7668;BME280;3876;42.204;24.686;2023-04-06T02:24:55;99091.34;;;2.50;96.19
7668;BME280;3876;42.204;24.686;2023-04-06T02:27:22;99117.47;;;2.56;96.04
7668;BME280;3876;42.204;24.686;2023-04-06T02:29:48;99093.09;;;2.36;96.26
7668;BME280;3876;42.204;24.686;2023-04-06T02:32:17;99120.00;;;2.49;96.56
7668;BME280;3876;42.204;24.686;2023-04-06T02:34:43;99125.09;;;2.46;96.71
7668;BME280;3876;42.204;24.686;2023-04-06T02:37:10;99116.66;;;2.47;96.71
7668;BME280;3876;42.204;24.686;2023-04-06T02:39:37;99092.25;;;2.32;96.87
7668;BME280;3876;42.204;24.686;2023-04-06T02:42:04;99111.63;;;2.41;96.92
7668;BME280;3876;42.204;24.686;2023-04-06T02:44:30;99100.66;;;2.33;97.05
7668;BME280;3876;42.204;24.686;2023-04-06T02:46:57;99116.66;;;2.44;97.49
7668;BME280;3876;42.204;24.686;2023-04-06T02:49:25;99103.22;;;2.36;97.41
7668;BME280;3876;42.204;24.686;2023-04-06T02:51:52;99107.41;;;2.38;97.79
7668;BME280;3876;42.204;24.686;2023-04-06T02:54:19;99115.00;;;2.31;98.58
7668;BME280;3876;42.204;24.686;2023-04-06T02:56:46;99105.75;;;2.24;98.69
7668;BME280;3876;42.204;24.686;2023-04-06T02:59:12;99115.00;;;2.23;98.54
7668;BME280;3876;42.204;24.686;2023-04-06T03:01:39;99088.06;;;2.11;98.57
7668;BME280;3876;42.204;24.686;2023-04-06T03:04:06;99105.75;;;2.24;98.60
7668;BME280;3876;42.204;24.686;2023-04-06T03:06:34;99111.66;;;2.20;98.77
7668;BME280;3876;42.204;24.686;2023-04-06T03:09:01;99102.38;;;2.20;98.98
7668;BME280;3876;42.204;24.686;2023-04-06T03:11:28;99108.28;;;2.21;98.90
7668;BME280;3876;42.204;24.686;2023-04-06T03:13:55;99104.06;;;2.21;99.40
7668;BME280;3876;42.204;24.686;2023-04-06T03:16:21;99099.00;;;2.13;99.51
7668;BME280;3876;42.204;24.686;2023-04-06T03:18:48;99097.34;;;2.16;99.38
7668;BME280;3876;42.204;24.686;2023-04-06T03:21:15;99099.00;;;2.17;99.49
7668;BME280;3876;42.204;24.686;2023-04-06T03:23:43;99101.53;;;2.17;99.47
7668;BME280;3876;42.204;24.686;2023-04-06T03:26:10;99079.66;;;2.03;99.71
7668;BME280;3876;42.204;24.686;2023-04-06T03:28:37;99109.97;;;2.22;99.23
7668;BME280;3876;42.204;24.686;2023-04-06T03:31:03;99105.75;;;2.24;99.06
7668;BME280;3876;42.204;24.686;2023-04-06T03:33:30;99104.91;;;2.25;98.67
7668;BME280;3876;42.204;24.686;2023-04-06T03:35:57;99100.69;;;2.24;98.76
7668;BME280;3876;42.204;24.686;2023-04-06T03:38:24;99103.22;;;2.21;98.76
7668;BME280;3876;42.204;24.686;2023-04-06T03:40:52;99079.66;;;2.06;99.31
7668;BME280;3876;42.204;24.686;2023-04-06T03:43:18;99081.31;;;2.10;99.08
7668;BME280;3876;42.204;24.686;2023-04-06T03:45:45;99103.22;;;2.24;98.82
7668;BME280;3876;42.204;24.686;2023-04-06T03:48:12;99104.91;;;2.28;98.72
7668;BME280;3876;42.204;24.686;2023-04-06T03:50:39;99096.47;;;2.29;98.75
7668;BME280;3876;42.204;24.686;2023-04-06T03:53:05;99098.97;;;2.30;98.73
7668;BME280;3876;42.204;24.686;2023-04-06T03:55:32;99080.47;;;2.28;98.44
7668;BME280;3876;42.204;24.686;2023-04-06T03:58:00;99093.91;;;2.39;98.46
7668;BME280;3876;42.204;24.686;2023-04-06T04:00:27;99085.50;;;2.42;98.73
7668;BME280;3876;42.204;24.686;2023-04-06T04:02:54;99090.53;;;2.37;98.64
7668;BME280;3876;42.204;24.686;2023-04-06T04:05:21;99101.47;;;2.47;98.94
7668;BME280;3876;42.204;24.686;2023-04-06T04:07:50;99111.56;;;2.53;99.06
7668;BME280;3876;42.204;24.686;2023-04-06T04:10:17;99111.56;;;2.56;99.58
7668;BME280;3876;42.204;24.686;2023-04-06T04:12:44;99117.44;;;2.62;99.86
7668;BME280;3876;42.204;24.686;2023-04-06T04:15:12;99113.19;;;2.72;99.46
7668;BME280;3876;42.204;24.686;2023-04-06T04:17:39;99104.72;;;2.82;98.22
7668;BME280;3876;42.204;24.686;2023-04-06T04:20:06;99112.28;;;2.91;97.99
7668;BME280;3876;42.204;24.686;2023-04-06T04:22:34;99109.75;;;2.94;97.44
7668;BME280;3876;42.204;24.686;2023-04-06T04:25:00;99116.47;;;2.98;97.12
7668;BME280;3876;42.204;24.686;2023-04-06T04:27:27;99109.72;;;3.03;97.55
7668;BME280;3876;42.204;24.686;2023-04-06T04:29:54;99111.38;;;3.04;97.39
7668;BME280;3876;42.204;24.686;2023-04-06T04:32:22;99111.34;;;3.13;96.57
7668;BME280;3876;42.204;24.686;2023-04-06T04:34:52;99114.72;;;3.15;96.78
7668;BME280;3876;42.204;24.686;2023-04-06T04:37:19;99116.41;;;3.16;96.98
7668;BME280;3876;42.204;24.686;2023-04-06T04:39:46;99119.75;;;3.23;96.49
7668;BME280;3876;42.204;24.686;2023-04-06T04:42:13;99113.81;;;3.29;96.02
7668;BME280;3876;42.204;24.686;2023-04-06T04:44:40;99109.56;;;3.31;96.18
7668;BME280;3876;42.204;24.686;2023-04-06T04:47:06;99106.16;;;3.33;96.28
7668;BME280;3876;42.204;24.686;2023-04-06T04:49:34;99102.81;;;3.33;96.21
7668;BME280;3876;42.204;24.686;2023-04-06T04:52:01;99107.81;;;3.42;94.38
7668;BME280;3876;42.204;24.686;2023-04-06T04:54:28;99099.31;;;3.46;94.03
7668;BME280;3876;42.204;24.686;2023-04-06T04:56:55;99100.97;;;3.53;93.82
7668;BME280;3876;42.204;24.686;2023-04-06T04:59:22;99111.09;;;3.56;93.64
7668;BME280;3876;42.204;24.686;2023-04-06T05:01:48;99116.13;;;3.65;93.93
7668;BME280;3876;42.204;24.686;2023-04-06T05:04:15;99112.69;;;3.69;94.51
7668;BME280;3876;42.204;24.686;2023-04-06T05:06:43;99116.84;;;3.76;93.95
7668;BME280;3876;42.204;24.686;2023-04-06T05:09:10;99115.16;;;3.81;92.43
7668;BME280;3876;42.204;24.686;2023-04-06T05:11:37;99115.94;;;3.85;92.19
7668;BME280;3876;42.204;24.686;2023-04-06T05:14:03;99119.25;;;3.94;92.11
7668;BME280;3876;42.204;24.686;2023-04-06T05:16:32;99115.84;;;3.98;92.23
7668;BME280;3876;42.204;24.686;2023-04-06T05:18:59;99116.63;;;4.05;92.98
7668;BME280;3876;42.204;24.686;2023-04-06T05:21:25;99084.56;;;3.99;92.76
7668;BME280;3876;42.204;24.686;2023-04-06T05:23:54;99106.34;;;4.20;92.64
7668;BME280;3876;42.204;24.686;2023-04-06T05:26:21;99103.72;;;4.28;92.16
7668;BME280;3876;42.204;24.686;2023-04-06T05:28:48;99095.22;;;4.35;92.00
7668;BME280;3876;42.204;24.686;2023-04-06T05:31:15;99106.13;;;4.40;91.90
7668;BME280;3876;42.204;24.686;2023-04-06T05:33:42;99098.44;;;4.49;91.04
7668;BME280;3876;42.204;24.686;2023-04-06T05:36:08;99100.00;;;4.59;90.40
7668;BME280;3876;42.204;24.686;2023-04-06T05:38:35;99099.97;;;4.65;90.83
7668;BME280;3876;42.204;24.686;2023-04-06T05:41:03;99096.47;;;4.72;89.46
7668;BME280;3876;42.204;24.686;2023-04-06T05:43:30;99103.22;;;4.76;88.92
7668;BME280;3876;42.204;24.686;2023-04-06T05:45:57;99092.13;;;4.83;88.58
7668;BME280;3876;42.204;24.686;2023-04-06T05:48:24;99096.22;;;4.93;88.52
7668;BME280;3876;42.204;24.686;2023-04-06T05:50:51;99089.31;;;5.04;88.94
7668;BME280;3876;42.204;24.686;2023-04-06T05:53:18;99060.69;;;4.93;88.62
7668;BME280;3876;42.204;24.686;2023-04-06T05:55:46;99079.81;;;5.18;87.59
7668;BME280;3876;42.204;24.686;2023-04-06T05:58:14;99089.69;;;5.38;87.46
7668;BME280;3876;42.204;24.686;2023-04-06T06:00:42;99078.50;;;5.50;86.18
7668;BME280;3876;42.204;24.686;2023-04-06T06:03:11;99079.84;;;5.72;86.88
7668;BME280;3876;42.204;24.686;2023-04-06T06:05:38;99073.66;;;5.91;85.10
7668;BME280;3876;42.204;24.686;2023-04-06T06:08:05;99081.91;;;6.04;83.77
7668;BME280;3876;42.204;24.686;2023-04-06T06:10:32;99078.25;;;6.18;83.42
7668;BME280;3876;42.204;24.686;2023-04-06T06:12:59;99065.25;;;6.33;82.30
7668;BME280;3876;42.204;24.686;2023-04-06T06:15:27;99069.22;;;6.48;83.32
7668;BME280;3876;42.204;24.686;2023-04-06T06:17:54;99067.09;;;6.70;81.98
7668;BME280;3876;42.204;24.686;2023-04-06T06:20:21;99066.63;;;6.93;83.38
7668;BME280;3876;42.204;24.686;2023-04-06T06:22:47;99072.00;;;7.20;81.08
7668;BME280;3876;42.204;24.686;2023-04-06T06:25:14;99086.19;;;7.30;79.60
7668;BME280;3876;42.204;24.686;2023-04-06T06:27:41;99089.50;;;7.34;80.17
7668;BME280;3876;42.204;24.686;2023-04-06T06:30:09;99079.06;;;7.45;78.36
7668;BME280;3876;42.204;24.686;2023-04-06T06:32:37;99069.41;;;7.59;79.49
7668;BME280;3876;42.204;24.686;2023-04-06T06:35:04;99076.66;;;7.75;78.54
7668;BME280;3876;42.204;24.686;2023-04-06T06:37:31;99077.47;;;7.76;77.42
7668;BME280;3876;42.204;24.686;2023-04-06T06:39:58;99067.16;;;7.80;78.25
7668;BME280;3876;42.204;24.686;2023-04-06T06:42:24;99069.94;;;8.05;79.69
7668;BME280;3876;42.204;24.686;2023-04-06T06:44:51;99068.97;;;8.11;76.78
7668;BME280;3876;42.204;24.686;2023-04-06T06:47:18;99077.66;;;8.37;78.51
7668;BME280;3876;42.204;24.686;2023-04-06T06:49:46;99067.03;;;8.53;76.12
7668;BME280;3876;42.204;24.686;2023-04-06T06:52:13;99059.31;;;8.54;75.45
7668;BME280;3876;42.204;24.686;2023-04-06T06:54:40;99067.75;;;8.87;76.40
7668;BME280;3876;42.204;24.686;2023-04-06T06:57:07;99071.19;;;8.86;74.46
7668;BME280;3876;42.204;24.686;2023-04-06T06:59:33;99084.59;;;8.94;75.36
7668;BME280;3876;42.204;24.686;2023-04-06T07:02:00;99080.06;;;9.04;74.76
7668;BME280;3876;42.204;24.686;2023-04-06T07:04:27;99077.09;;;9.17;75.41
7668;BME280;3876;42.204;24.686;2023-04-06T07:06:55;99076.94;;;9.23;72.63
7668;BME280;3876;42.204;24.686;2023-04-06T07:09:22;99089.44;;;9.32;73.55
7668;BME280;3876;42.204;24.686;2023-04-06T07:11:49;99079.63;;;9.46;72.68
7668;BME280;3876;42.204;24.686;2023-04-06T07:14:16;99083.19;;;9.41;71.72
7668;BME280;3876;42.204;24.686;2023-04-06T07:16:43;99081.44;;;9.43;71.81
7668;BME280;3876;42.204;24.686;2023-04-06T07:19:12;99078.50;;;9.55;73.25
7668;BME280;3876;42.204;24.686;2023-04-06T07:21:39;99072.53;;;9.55;72.99
7668;BME280;3876;42.204;24.686;2023-04-06T07:24:07;99078.84;;;9.71;71.92
7668;BME280;3876;42.204;24.686;2023-04-06T07:26:34;99070.97;;;10.03;74.05
7668;BME280;3876;42.204;24.686;2023-04-06T07:29:01;99080.97;;;10.11;70.22
7668;BME280;3876;42.204;24.686;2023-04-06T07:31:27;99078.84;;;10.23;72.19
7668;BME280;3876;42.204;24.686;2023-04-06T07:33:54;99079.38;;;10.33;70.37
7668;BME280;3876;42.204;24.686;2023-04-06T07:36:21;99077.88;;;10.50;71.72
7668;BME280;3876;42.204;24.686;2023-04-06T07:38:48;99074.69;;;10.69;72.08
7668;BME280;3876;42.204;24.686;2023-04-06T07:41:16;99079.91;;;10.89;71.38
7668;BME280;3876;42.204;24.686;2023-04-06T07:43:43;99080.59;;;10.94;68.66
7668;BME280;3876;42.204;24.686;2023-04-06T07:46:10;99070.44;;;11.14;68.61
7668;BME280;3876;42.204;24.686;2023-04-06T07:48:37;99078.38;;;11.08;67.94
7668;BME280;3876;42.204;24.686;2023-04-06T07:51:04;99076.00;;;11.25;70.15
7668;BME280;3876;42.204;24.686;2023-04-06T07:53:31;99084.41;;;11.50;71.62
7668;BME280;3876;42.204;24.686;2023-04-06T07:55:58;99074.44;;;11.86;70.02
7668;BME280;3876;42.204;24.686;2023-04-06T07:58:27;99073.06;;;11.99;69.15
7668;BME280;3876;42.204;24.686;2023-04-06T08:00:53;99068.75;;;12.00;67.58
7668;BME280;3876;42.204;24.686;2023-04-06T08:03:21;99078.88;;;11.83;66.37
7668;BME280;3876;42.204;24.686;2023-04-06T08:05:51;99077.47;;;11.76;67.12
7668;BME280;3876;42.204;24.686;2023-04-06T08:08:18;99071.84;;;11.88;66.70
7668;BME280;3876;42.204;24.686;2023-04-06T08:10:46;99053.53;;;11.75;64.86
7668;BME280;3876;42.204;24.686;2023-04-06T08:13:13;99069.91;;;11.93;64.47
7668;BME280;3876;42.204;24.686;2023-04-06T08:15:41;99060.78;;;11.86;65.43
7668;BME280;3876;42.204;24.686;2023-04-06T08:18:08;99054.50;;;11.93;70.26
7668;BME280;3876;42.204;24.686;2023-04-06T08:20:35;99055.22;;;12.17;68.52
7668;BME280;3876;42.204;24.686;2023-04-06T08:23:02;99052.19;;;12.27;65.62
7668;BME280;3876;42.204;24.686;2023-04-06T08:25:29;99061.31;;;12.14;64.60
7668;BME280;3876;42.204;24.686;2023-04-06T08:27:56;99053.22;;;12.43;66.37
7668;BME280;3876;42.204;24.686;2023-04-06T08:30:22;99049.09;;;12.39;64.61
7668;BME280;3876;42.204;24.686;2023-04-06T08:32:51;99063.09;;;12.52;63.63
7668;BME280;3876;42.204;24.686;2023-04-06T08:35:17;99056.78;;;12.59;66.05
7668;BME280;3876;42.204;24.686;2023-04-06T08:37:44;99048.09;;;12.62;64.75
7668;BME280;3876;42.204;24.686;2023-04-06T08:40:11;99052.28;;;12.64;62.66
7668;BME280;3876;42.204;24.686;2023-04-06T08:42:40;99053.13;;;12.84;65.39
7668;BME280;3876;42.204;24.686;2023-04-06T08:45:10;99042.00;;;12.83;65.19
7668;BME280;3876;42.204;24.686;2023-04-06T08:47:37;99041.44;;;12.77;62.24
7668;BME280;3876;42.204;24.686;2023-04-06T08:50:07;99045.44;;;12.63;60.35
7668;BME280;3876;42.204;24.686;2023-04-06T08:52:36;99040.06;;;12.70;63.26
7668;BME280;3876;42.204;24.686;2023-04-06T08:55:05;99047.28;;;12.80;63.46
7668;BME280;3876;42.204;24.686;2023-04-06T08:57:32;99033.72;;;12.77;63.03
7668;BME280;3876;42.204;24.686;2023-04-06T09:00:00;99020.78;;;12.97;64.58
7668;BME280;3876;42.204;24.686;2023-04-06T09:02:27;98999.59;;;12.92;64.17
7668;BME280;3876;42.204;24.686;2023-04-06T09:04:54;99022.41;;;13.18;62.19
7668;BME280;3876;42.204;24.686;2023-04-06T09:07:22;99016.16;;;13.05;61.92
7668;BME280;3876;42.204;24.686;2023-04-06T09:09:50;99020.88;;;13.14;61.41
7668;BME280;3876;42.204;24.686;2023-04-06T09:12:24;99017.69;;;13.28;64.27
7668;BME280;3876;42.204;24.686;2023-04-06T09:14:53;99011.78;;;13.43;63.98
7668;BME280;3876;42.204;24.686;2023-04-06T09:17:21;99003.56;;;13.71;67.09
7668;BME280;3876;42.204;24.686;2023-04-06T09:19:48;99009.19;;;13.79;62.67
7668;BME280;3876;42.204;24.686;2023-04-06T09:22:15;99001.00;;;13.88;61.10
7668;BME280;3876;42.204;24.686;2023-04-06T09:24:45;99007.19;;;13.84;61.03
7668;BME280;3876;42.204;24.686;2023-04-06T09:27:12;98992.03;;;13.78;59.70
7668;BME280;3876;42.204;24.686;2023-04-06T09:29:40;99004.63;;;13.84;60.63
7668;BME280;3876;42.204;24.686;2023-04-06T09:32:07;98998.78;;;13.97;62.49
7668;BME280;3876;42.204;24.686;2023-04-06T09:34:38;98983.53;;;14.10;63.71
7668;BME280;3876;42.204;24.686;2023-04-06T09:37:15;98988.53;;;14.13;62.83
7668;BME280;3876;42.204;24.686;2023-04-06T09:39:43;98988.41;;;14.32;62.26
7668;BME280;3876;42.204;24.686;2023-04-06T09:42:22;98997.28;;;14.26;62.74
7668;BME280;3876;42.204;24.686;2023-04-06T09:44:49;98984.41;;;14.26;63.55
7668;BME280;3876;42.204;24.686;2023-04-06T09:47:16;98973.78;;;14.32;63.61
7668;BME280;3876;42.204;24.686;2023-04-06T09:49:46;98970.00;;;14.39;63.45
7668;BME280;3876;42.204;24.686;2023-04-06T09:52:14;98976.72;;;14.42;60.99
7668;BME280;3876;42.204;24.686;2023-04-06T09:54:45;98972.50;;;14.41;61.73
7668;BME280;3876;42.204;24.686;2023-04-06T09:57:19;98980.16;;;14.42;61.45
7668;BME280;3876;42.204;24.686;2023-04-06T09:59:52;98981.81;;;14.43;62.09
7668;BME280;3876;42.204;24.686;2023-04-06T10:02:27;98976.00;;;14.55;63.07
7668;BME280;3876;42.204;24.686;2023-04-06T10:04:59;98963.00;;;14.41;57.73
7668;BME280;3876;42.204;24.686;2023-04-06T10:07:29;98968.38;;;14.54;60.08
7668;BME280;3876;42.204;24.686;2023-04-06T10:09:58;98970.19;;;14.67;60.40
7668;BME280;3876;42.204;24.686;2023-04-06T10:12:26;98973.38;;;14.73;60.89
7668;BME280;3876;42.204;24.686;2023-04-06T10:14:53;98967.38;;;14.56;60.01
7668;BME280;3876;42.204;24.686;2023-04-06T10:17:20;98970.84;;;14.55;57.18
7668;BME280;3876;42.204;24.686;2023-04-06T10:19:53;98965.88;;;14.52;57.53
7668;BME280;3876;42.204;24.686;2023-04-06T10:22:26;98974.09;;;14.59;57.80
7668;BME280;3876;42.204;24.686;2023-04-06T10:24:54;98964.03;;;14.54;54.81
7668;BME280;3876;42.204;24.686;2023-04-06T10:27:29;98965.38;;;14.61;56.63
7668;BME280;3876;42.204;24.686;2023-04-06T10:30:01;98964.03;;;14.54;55.89
7668;BME280;3876;42.204;24.686;2023-04-06T10:32:33;98953.38;;;14.60;56.92
7668;BME280;3876;42.204;24.686;2023-04-06T10:35:11;98954.47;;;14.72;58.52
7668;BME280;3876;42.204;24.686;2023-04-06T10:37:51;98948.09;;;14.63;56.98
7668;BME280;3876;42.204;24.686;2023-04-06T10:40:22;98944.56;;;14.80;59.75
7668;BME280;3876;42.204;24.686;2023-04-06T10:42:52;98949.56;;;14.99;58.13
7668;BME280;3876;42.204;24.686;2023-04-06T10:45:20;98937.06;;;14.91;57.51
7668;BME280;3876;42.204;24.686;2023-04-06T10:47:46;98931.56;;;14.97;57.91
7668;BME280;3876;42.204;24.686;2023-04-06T10:50:15;98927.59;;;14.92;57.90
7668;BME280;3876;42.204;24.686;2023-04-06T10:52:44;98937.31;;;14.87;56.22
7668;BME280;3876;42.204;24.686;2023-04-06T10:55:12;98923.00;;;14.81;60.28
7668;BME280;3876;42.204;24.686;2023-04-06T10:57:39;98917.63;;;14.86;57.29
7668;BME280;3876;42.204;24.686;2023-04-06T11:00:08;98922.25;;;14.95;58.47
7668;BME280;3876;42.204;24.686;2023-04-06T11:02:35;98927.25;;;14.98;54.25
7668;BME280;3876;42.204;24.686;2023-04-06T11:05:03;98918.63;;;15.13;57.00
7668;BME280;3876;42.204;24.686;2023-04-06T11:07:30;98924.06;;;15.08;56.33
7668;BME280;3876;42.204;24.686;2023-04-06T11:09:57;98909.00;;;15.01;56.17
7668;BME280;3876;42.204;24.686;2023-04-06T11:12:24;98913.75;;;14.93;58.53
7668;BME280;3876;42.204;24.686;2023-04-06T11:14:55;98916.44;;;14.91;55.95
7668;BME280;3876;42.204;24.686;2023-04-06T11:17:28;98913.75;;;14.93;55.82
7668;BME280;3876;42.204;24.686;2023-04-06T11:19:55;98892.19;;;14.94;55.54
7668;BME280;3876;42.204;24.686;2023-04-06T11:22:22;98924.41;;;14.87;51.55
7668;BME280;3876;42.204;24.686;2023-04-06T11:24:48;98912.28;;;14.89;50.77
7668;BME280;3876;42.204;24.686;2023-04-06T11:27:16;98907.78;;;14.92;52.78
7668;BME280;3876;42.204;24.686;2023-04-06T11:29:43;98864.53;;;14.50;53.36
7668;BME280;3876;42.204;24.686;2023-04-06T11:32:11;98898.28;;;14.77;53.62
7668;BME280;3876;42.204;24.686;2023-04-06T11:34:39;98900.63;;;14.82;52.34
7668;BME280;3876;42.204;24.686;2023-04-06T11:37:07;98904.44;;;14.75;51.63
7668;BME280;3876;42.204;24.686;2023-04-06T11:39:38;98884.97;;;14.85;55.04
7668;BME280;3876;42.204;24.686;2023-04-06T11:42:06;98887.81;;;14.96;51.47
7668;BME280;3876;42.204;24.686;2023-04-06T11:44:34;98895.19;;;15.02;51.15
7668;BME280;3876;42.204;24.686;2023-04-06T11:47:02;98887.81;;;14.96;52.88
7668;BME280;3876;42.204;24.686;2023-04-06T11:49:31;98888.34;;;15.01;53.90
7668;BME280;3876;42.204;24.686;2023-04-06T11:52:00;98890.41;;;15.10;53.15
7668;BME280;3876;42.204;24.686;2023-04-06T11:54:31;98887.22;;;15.20;52.24
7668;BME280;3876;42.204;24.686;2023-04-06T11:56:58;98881.94;;;15.08;53.20
7668;BME280;3876;42.204;24.686;2023-04-06T11:59:25;98895.06;;;15.19;55.37
7668;BME280;3876;42.204;24.686;2023-04-06T12:01:53;98885.88;;;14.84;52.77
7668;BME280;3876;42.204;24.686;2023-04-06T12:04:20;98887.97;;;14.61;51.08
7668;BME280;3876;42.204;24.686;2023-04-06T12:06:47;98893.75;;;14.66;52.48
7668;BME280;3876;42.204;24.686;2023-04-06T12:09:16;98892.97;;;14.80;53.23
7668;BME280;3876;42.204;24.686;2023-04-06T12:11:43;98889.63;;;14.94;52.95
7668;BME280;3876;42.204;24.686;2023-04-06T12:14:10;98881.97;;;14.92;53.31
7668;BME280;3876;42.204;24.686;2023-04-06T12:16:37;98879.25;;;14.80;51.49
7668;BME280;3876;42.204;24.686;2023-04-06T12:19:04;98889.66;;;14.62;50.87
7668;BME280;3876;42.204;24.686;2023-04-06T12:21:31;98882.59;;;14.50;53.24
7668;BME280;3876;42.204;24.686;2023-04-06T12:23:58;98872.19;;;14.36;53.10
7668;BME280;3876;42.204;24.686;2023-04-06T12:26:27;98887.34;;;14.25;53.55
7668;BME280;3876;42.204;24.686;2023-04-06T12:28:54;98886.75;;;14.20;53.52
7668;BME280;3876;42.204;24.686;2023-04-06T12:31:21;98878.59;;;14.12;53.02
7668;BME280;3876;42.204;24.686;2023-04-06T12:33:51;98870.28;;;14.07;53.25
7668;BME280;3876;42.204;24.686;2023-04-06T12:36:19;98878.91;;;14.06;51.94
7668;BME280;3876;42.204;24.686;2023-04-06T12:38:47;98886.38;;;13.95;52.90
7668;BME280;3876;42.204;24.686;2023-04-06T12:41:14;98880.56;;;13.91;52.54
7668;BME280;3876;42.204;24.686;2023-04-06T12:43:43;98871.59;;;13.98;53.06
7668;BME280;3876;42.204;24.686;2023-04-06T12:46:10;98870.44;;;14.04;54.02
7668;BME280;3876;42.204;24.686;2023-04-06T12:48:37;98868.72;;;14.20;55.42
7668;BME280;3876;42.204;24.686;2023-04-06T12:51:05;98878.13;;;14.21;53.90
7668;BME280;3876;42.204;24.686;2023-04-06T12:53:33;98861.81;;;14.05;52.28
7668;BME280;3876;42.204;24.686;2023-04-06T12:56:00;98871.78;;;13.95;52.89
7668;BME280;3876;42.204;24.686;2023-04-06T12:58:27;98874.25;;;13.97;54.40
7668;BME280;3876;42.204;24.686;2023-04-06T13:00:57;98872.44;;;13.99;52.14
7668;BME280;3876;42.204;24.686;2023-04-06T13:03:28;98872.91;;;13.90;53.50
7668;BME280;3876;42.204;24.686;2023-04-06T13:05:55;98871.25;;;13.89;53.53
7668;BME280;3876;42.204;24.686;2023-04-06T13:08:23;98861.09;;;13.86;53.64
7668;BME280;3876;42.204;24.686;2023-04-06T13:10:51;98866.44;;;13.83;52.00
7668;BME280;3876;42.204;24.686;2023-04-06T13:13:22;98868.03;;;13.68;52.49
7668;BME280;3876;42.204;24.686;2023-04-06T13:15:49;98865.03;;;13.60;53.08
7668;BME280;3876;42.204;24.686;2023-04-06T13:18:17;98859.09;;;13.58;53.38